Time;durP1;ratioP1;P1;durP2;ratioP2;P2;SDS_P1;SDS_P2;PMS_P1;PMS_P2;Temp;Humidity;BMP_temperature;BMP_pressure;BME280_temperature;BME280_humidity;BME280_pressure;Samples;Min_cycle;Max_cycle;Signal;HPM_P1;HPM_P2
2021/04/28 00:03:42;;;;;;;1.80;1.10;;;14.90;73.20;;;;;;20752170;28;20061;-52
2021/04/28 00:13:44;;;;;;;2.13;1.33;;;14.80;72.90;;;;;;20748477;28;20502;-52
2021/04/28 00:23:46;;;;;;;3.33;1.40;;;14.80;73.40;;;;;;20749420;28;20108;-50
2021/04/28 00:33:49;;;;;;;1.83;1.10;;;14.80;72.90;;;;;;20748562;28;20053;-51
2021/04/28 00:43:51;;;;;;;3.20;1.30;;;14.70;72.70;;;;;;20747262;28;20061;-53
2021/04/28 00:53:54;;;;;;;3.67;1.33;;;14.60;73.30;;;;;;20746562;28;20095;-50
2021/04/28 01:03:56;;;;;;;2.10;1.23;;;14.50;73.60;;;;;;20730216;28;20100;-49
2021/04/28 01:14:01;;;;;;;2.37;1.50;;;14.40;73.30;;;;;;20746956;28;20058;-50
2021/04/28 01:24:06;;;;;;;1.80;1.13;;;14.40;73.50;;;;;;20755212;28;20471;-50
2021/04/28 01:34:14;;;;;;;2.90;1.67;;;14.40;73.80;;;;;;20762504;28;20108;-55
2021/04/28 01:44:22;;;;;;;2.17;1.60;;;14.20;74.60;;;;;;20761692;28;20494;-49
2021/04/28 01:54:29;;;;;;;5.82;2.55;;;14.10;75.20;;;;;;20759695;28;20058;-50
2021/04/28 02:04:37;;;;;;;3.53;2.85;;;14.10;75.40;;;;;;20759568;28;20056;-51
2021/04/28 02:14:50;;;;;;;2.65;1.83;;;14.10;75.50;;;;;;20757947;28;20050;-51
2021/04/28 02:24:59;;;;;;;5.50;1.42;;;14.10;75.00;;;;;;20757840;28;20060;-52
2021/04/28 02:35:06;;;;;;;1.95;1.08;;;14.10;75.20;;;;;;20756710;28;20429;-54
2021/04/28 02:45:16;;;;;;;3.63;1.20;;;13.90;75.30;;;;;;20756481;28;20057;-52
2021/04/28 02:55:21;;;;;;;2.30;1.83;;;14.00;75.40;;;;;;20754755;28;20516;-51
2021/04/28 03:05:24;;;;;;;4.55;1.33;;;13.90;75.70;;;;;;20754412;28;20046;-49
2021/04/28 03:15:28;;;;;;;1.65;1.25;;;13.90;75.90;;;;;;20753309;28;20061;-50
2021/04/28 03:25:32;;;;;;;2.58;1.48;;;13.90;75.80;;;;;;20752969;28;20053;-49
2021/04/28 03:35:34;;;;;;;2.28;1.30;;;13.90;75.50;;;;;;20751666;28;20076;-49
2021/04/28 03:45:38;;;;;;;4.07;1.58;;;14.00;75.10;;;;;;20751115;28;20096;-49
2021/04/28 03:55:41;;;;;;;2.60;1.33;;;13.90;75.30;;;;;;20750280;28;20060;-52
2021/04/28 04:05:45;;;;;;;3.00;1.80;;;13.80;75.30;;;;;;20750016;28;20486;-52
2021/04/28 04:15:47;;;;;;;3.90;2.47;;;13.70;76.20;;;;;;20748968;28;20057;-50
2021/04/28 04:25:53;;;;;;;3.00;2.40;;;13.80;75.90;;;;;;20749415;28;20050;-54
2021/04/28 04:35:56;;;;;;;4.72;3.00;;;13.80;75.90;;;;;;20748265;28;20054;-50
2021/04/28 04:45:58;;;;;;;5.00;3.60;;;13.80;75.90;;;;;;20748902;28;20050;-51
2021/04/28 04:56:00;;;;;;;7.93;3.42;;;13.80;75.90;;;;;;20752498;28;20145;-52
2021/04/28 05:06:02;;;;;;;6.38;3.53;;;13.90;75.70;;;;;;20763959;28;20486;-53
2021/04/28 05:16:07;;;;;;;7.38;4.03;;;13.90;75.50;;;;;;20761942;28;20502;-53
2021/04/28 05:26:11;;;;;;;6.15;3.92;;;14.00;75.50;;;;;;20762962;28;20494;-51
2021/04/28 05:36:14;;;;;;;6.72;3.80;;;14.00;75.50;;;;;;20760514;28;20046;-49
2021/04/28 05:46:16;;;;;;;6.00;3.33;;;13.80;75.40;;;;;;20761289;28;20057;-50
2021/04/28 05:56:18;;;;;;;5.63;4.13;;;13.80;75.30;;;;;;20759721;28;20148;-49
2021/04/28 06:06:22;;;;;;;8.43;4.28;;;13.90;75.60;;;;;;20759083;28;20512;-50
2021/04/28 06:16:25;;;;;;;11.63;4.90;;;13.90;75.50;;;;;;20757784;28;20050;-52
2021/04/28 06:26:39;;;;;;;11.90;5.53;;;14.00;75.50;;;;;;20756954;28;20482;-53
2021/04/28 06:37:00;;;;;;;9.40;5.75;;;14.00;75.40;;;;;;20756081;28;20057;-53
2021/04/28 06:47:09;;;;;;;11.20;5.50;;;14.00;75.50;;;;;;20757221;28;20052;-51
2021/04/28 06:57:15;;;;;;;9.23;5.60;;;14.10;74.90;;;;;;20754722;28;20057;-49
2021/04/28 07:07:22;;;;;;;8.63;6.30;;;14.10;75.10;;;;;;20754939;28;20505;-50
2021/04/28 07:17:35;;;;;;;10.45;6.55;;;14.20;75.10;;;;;;20751834;28;20513;-49
2021/04/28 07:27:43;;;;;;;7.32;5.30;;;14.40;74.90;;;;;;20753324;28;20137;-49
2021/04/28 07:37:54;;;;;;;10.88;5.32;;;14.50;74.60;;;;;;20751204;28;20145;-50
2021/04/28 07:48:15;;;;;;;9.27;5.85;;;14.70;74.30;;;;;;20751505;28;20053;-50
2021/04/28 07:58:32;;;;;;;8.48;6.63;;;14.70;74.30;;;;;;20749193;28;20053;-52
2021/04/28 08:08:44;;;;;;;10.75;7.03;;;14.90;73.80;;;;;;20750009;28;20128;-53
2021/04/28 08:19:05;;;;;;;8.25;6.68;;;15.10;73.50;;;;;;20748444;28;20517;-54
2021/04/28 08:29:12;;;;;;;15.05;8.20;;;15.20;73.20;;;;;;20748918;28;20049;-53
2021/04/28 08:39:33;;;;;;;18.88;8.60;;;15.40;73.10;;;;;;20747544;28;20064;-53
2021/04/28 08:49:53;;;;;;;11.43;8.55;;;15.60;72.60;;;;;;20748406;28;20417;-52
2021/04/28 09:00:06;;;;;;;9.65;7.70;;;15.60;72.50;;;;;;20746304;28;20418;-52
2021/04/28 09:10:29;;;;;;;12.27;8.32;;;15.60;72.50;;;;;;20746803;28;20096;-53
2021/04/28 09:20:52;;;;;;;8.30;6.10;;;15.80;72.20;;;;;;20747000;28;20050;-52
2021/04/28 09:31:15;;;;;;;7.18;5.10;;;15.90;72.10;;;;;;20746101;28;20480;-54
2021/04/28 09:41:42;;;;;;;7.70;4.88;;;16.10;73.30;;;;;;20748502;28;20049;-53
2021/04/28 09:52:03;;;;;;;5.65;4.05;;;16.30;73.70;;;;;;20758465;28;20058;-53
2021/04/28 10:02:30;;;;;;;4.50;3.83;;;16.70;72.70;;;;;;20759795;28;20049;-53
2021/04/28 10:12:41;;;;;;;3.95;3.50;;;17.20;70.80;;;;;;20757292;28;20161;-53
2021/04/28 10:22:51;;;;;;;4.35;2.70;;;17.30;69.70;;;;;;20757530;28;20060;-50
2021/04/28 10:32:59;;;;;;;6.45;2.90;;;17.50;67.20;;;;;;20754472;28;20042;-52
2021/04/28 10:43:08;;;;;;;4.50;2.95;;;18.20;65.50;;;;;;20754848;28;20049;-50
2021/04/28 10:53:28;;;;;;;5.45;3.45;;;18.80;64.20;;;;;;20750518;28;20064;-53
2021/04/28 11:03:57;;;;;;;5.90;4.13;;;18.90;63.60;;;;;;20753019;28;20057;-54
2021/04/28 11:24:16;;;;;;;4.68;2.80;;;19.40;61.60;;;;;;20737323;28;20152;-50
2021/04/28 11:34:31;;;;;;;5.60;3.17;;;19.60;60.30;;;;;;20740082;28;20077;-52
2021/04/28 11:44:40;;;;;;;5.68;3.55;;;19.80;58.70;;;;;;20746963;28;20058;-52
2021/04/28 11:54:42;;;;;;;7.20;2.47;;;20.10;57.20;;;;;;20749253;28;20176;-56
2021/04/28 12:04:45;;;;;;;5.82;3.25;;;20.10;58.80;;;;;;20749526;28;20058;-56
2021/04/28 12:14:53;;;;;;;6.72;3.85;;;20.00;56.30;;;;;;20748532;28;20162;-54
2021/04/28 12:24:58;;;;;;;2.80;1.77;;;20.10;55.30;;;;;;20748816;28;20060;-53
2021/04/28 12:35:15;;;;;;;3.50;2.20;;;20.50;52.00;;;;;;20747434;28;20099;-54
2021/04/28 12:45:19;;;;;;;5.00;2.38;;;20.90;51.10;;;;;;20747521;28;20046;-54
2021/04/28 12:55:39;;;;;;;3.38;1.92;;;21.00;47.90;;;;;;20746278;28;20054;-51
2021/04/28 13:06:02;;;;;;;7.95;4.70;;;21.10;48.00;;;;;;20747467;28;20046;-55
2021/04/28 13:16:26;;;;;;;7.85;4.47;;;21.20;46.30;;;;;;20748260;28;20136;-56
2021/04/28 13:26:31;;;;;;;3.33;1.55;;;21.20;48.10;;;;;;20762547;28;20501;-55
2021/04/28 13:36:46;;;;;;;3.28;1.50;;;21.30;46.20;;;;;;20759977;28;20413;-56
2021/04/28 13:46:50;;;;;;;6.07;1.70;;;21.30;44.80;;;;;;20761192;28;20140;-55
2021/04/28 13:56:57;;;;;;;4.82;2.20;;;20.80;48.40;;;;;;20758903;28;20053;-55
2021/04/28 14:07:03;;;;;;;3.88;1.88;;;20.40;49.60;;;;;;20759181;28;20054;-54
2021/04/28 14:17:07;;;;;;;3.25;1.83;;;20.20;51.20;;;;;;20757793;28;20490;-53
2021/04/28 14:27:09;;;;;;;4.13;2.03;;;20.10;52.10;;;;;;20757551;28;20450;-56
2021/04/28 14:37:11;;;;;;;4.55;2.45;;;19.90;52.80;;;;;;20756919;28;20054;-53
2021/04/28 14:47:12;;;;;;;2.38;1.30;;;20.40;47.90;;;;;;20755674;28;20398;-55
2021/04/28 14:57:13;;;;;;;3.08;1.60;;;20.40;45.80;;;;;;20754983;28;20042;-56
2021/04/28 15:07:14;;;;;;;5.18;3.28;;;20.70;44.60;;;;;;20754301;28;20049;-55
2021/04/28 15:17:15;;;;;;;3.17;1.55;;;20.70;45.30;;;;;;20753845;28;20054;-56
2021/04/28 15:27:15;;;;;;;2.42;1.80;;;20.90;44.80;;;;;;20753420;28;20054;-56
2021/04/28 15:37:16;;;;;;;2.90;1.35;;;21.20;44.70;;;;;;20750234;28;20054;-51
2021/04/28 15:47:20;;;;;;;4.63;2.22;;;21.10;44.10;;;;;;20751794;28;20077;-51
2021/04/28 15:57:22;;;;;;;3.60;1.40;;;20.90;44.70;;;;;;20750574;28;20058;-54
2021/04/28 16:07:26;;;;;;;2.95;1.35;;;21.00;43.90;;;;;;20748827;28;20050;-50
2021/04/28 16:17:28;;;;;;;3.13;1.40;;;20.90;43.80;;;;;;20747207;28;20490;-51
2021/04/28 16:27:33;;;;;;;3.15;1.45;;;20.80;43.90;;;;;;20749771;28;20065;-51
2021/04/28 16:37:37;;;;;;;1.88;1.10;;;20.70;43.50;;;;;;20747564;28;20413;-49
2021/04/28 16:47:43;;;;;;;2.20;1.40;;;20.60;42.90;;;;;;20712352;28;20054;-53
2021/04/28 16:57:46;;;;;;;3.83;2.47;;;20.70;41.70;;;;;;20690414;28;20101;-51
2021/04/28 17:07:50;;;;;;;2.53;1.20;;;20.70;42.80;;;;;;20683275;28;20410;-50
2021/04/28 17:17:54;;;;;;;4.85;1.33;;;20.60;42.60;;;;;;20714762;28;20477;-51
2021/04/28 17:27:56;;;;;;;3.58;1.80;;;20.40;43.80;;;;;;20762284;28;20136;-49
2021/04/28 17:38:00;;;;;;;3.15;1.30;;;20.20;44.10;;;;;;20760812;28;20058;-50
2021/04/28 17:48:04;;;;;;;3.53;1.40;;;20.10;44.30;;;;;;20760994;28;20058;-50
2021/04/28 17:58:06;;;;;;;2.67;1.70;;;20.10;45.10;;;;;;20759624;28;20425;-49
2021/04/28 18:08:09;;;;;;;3.47;1.38;;;20.00;45.40;;;;;;20758455;28;20077;-50
2021/04/28 18:18:13;;;;;;;5.50;1.87;;;19.80;45.90;;;;;;20757233;28;20089;-51
2021/04/28 18:28:17;;;;;;;2.85;1.77;;;19.70;44.60;;;;;;20757530;28;20482;-50
2021/04/28 18:38:19;;;;;;;3.58;1.70;;;19.60;45.20;;;;;;20753777;28;20045;-54
2021/04/28 18:48:21;;;;;;;3.93;2.20;;;19.50;46.90;;;;;;20755917;28;20486;-51
2021/04/28 18:58:25;;;;;;;4.38;1.95;;;19.30;46.10;;;;;;20753316;28;20437;-54
2021/04/28 19:08:27;;;;;;;2.53;1.73;;;19.00;46.00;;;;;;20753894;28;20080;-56
2021/04/28 19:18:31;;;;;;;6.87;2.00;;;18.80;46.90;;;;;;20751619;28;20104;-53
2021/04/28 19:28:33;;;;;;;4.33;2.07;;;18.50;47.30;;;;;;20752285;28;20548;-55
2021/04/28 19:38:36;;;;;;;6.43;2.30;;;18.40;48.10;;;;;;20750836;28;20073;-51
2021/04/28 19:48:38;;;;;;;3.33;1.90;;;18.20;48.70;;;;;;20751149;28;20049;-54
2021/04/28 19:58:40;;;;;;;3.17;1.80;;;18.10;48.70;;;;;;20749115;28;20104;-54
2021/04/28 20:08:42;;;;;;;4.15;1.90;;;18.00;48.40;;;;;;20749348;28;20144;-55
2021/04/28 20:18:44;;;;;;;5.13;2.03;;;17.60;49.90;;;;;;20747456;28;20061;-54
2021/04/28 20:28:46;;;;;;;3.35;1.70;;;17.50;51.00;;;;;;20747355;28;20107;-54
2021/04/28 20:38:48;;;;;;;3.53;1.90;;;17.20;52.70;;;;;;20746475;28;20058;-55
2021/04/28 20:48:51;;;;;;;4.55;1.60;;;17.10;53.70;;;;;;20747546;28;20054;-51
2021/04/28 20:58:54;;;;;;;4.80;1.60;;;17.00;54.40;;;;;;20745741;28;20050;-54
2021/04/28 21:08:56;;;;;;;3.47;1.70;;;16.90;54.70;;;;;;20746571;28;20157;-54
2021/04/28 21:18:59;;;;;;;2.35;1.30;;;16.80;55.10;;;;;;20745027;28;20062;-55
2021/04/28 21:29:00;;;;;;;4.93;1.65;;;16.70;54.90;;;;;;20745423;28;20050;-53
2021/04/28 21:39:04;;;;;;;2.80;1.13;;;16.70;55.20;;;;;;20750385;28;20478;-53
2021/04/28 21:49:06;;;;;;;2.60;1.30;;;16.70;55.50;;;;;;20759962;28;20049;-55
2021/04/28 21:59:08;;;;;;;2.97;1.20;;;16.60;56.20;;;;;;20757659;28;20084;-54
2021/04/28 22:09:10;;;;;;;4.03;1.77;;;16.50;56.80;;;;;;20758936;28;20141;-53
2021/04/28 22:19:12;;;;;;;2.08;1.02;;;16.40;56.90;;;;;;20756969;28;20092;-53
2021/04/28 22:29:15;;;;;;;3.58;1.27;;;16.50;56.60;;;;;;20757770;28;20388;-55
2021/04/28 22:39:17;;;;;;;1.95;1.30;;;16.40;56.80;;;;;;20756045;28;20616;-53
2021/04/28 22:49:19;;;;;;;4.45;1.58;;;16.40;57.20;;;;;;20755767;28;20057;-54
2021/04/28 22:59:21;;;;;;;2.28;1.20;;;16.30;57.70;;;;;;20754407;28;20080;-54
2021/04/28 23:09:24;;;;;;;2.30;1.40;;;16.30;58.50;;;;;;20754569;28;20049;-53
2021/04/28 23:19:26;;;;;;;3.25;1.30;;;16.20;58.70;;;;;;20753424;28;20050;-54
2021/04/28 23:29:28;;;;;;;2.78;1.40;;;16.10;59.30;;;;;;20753497;28;20078;-55
2021/04/28 23:39:30;;;;;;;4.13;1.50;;;16.00;59.80;;;;;;20751642;28;20120;-54
2021/04/28 23:49:35;;;;;;;2.90;1.52;;;16.00;59.70;;;;;;20752153;28;20096;-55
2021/04/28 23:59:37;;;;;;;2.65;1.30;;;15.80;60.50;;;;;;20749941;28;20418;-51
